createdAt,value
2022-10-17T00:02:18.156Z,10.09
2022-10-17T00:05:20.329Z,10.09
2022-10-17T00:08:22.968Z,10.14
2022-10-17T00:11:27.102Z,10.08
2022-10-17T00:14:29.284Z,10.06
2022-10-17T00:17:31.712Z,9.98
2022-10-17T00:20:35.822Z,9.95
2022-10-17T00:23:37.953Z,10.00
2022-10-17T00:26:40.126Z,9.99
2022-10-17T00:29:42.335Z,9.90
2022-10-17T00:32:44.569Z,9.88
2022-10-17T00:35:46.756Z,9.88
2022-10-17T00:38:52.075Z,9.87
2022-10-17T00:41:54.251Z,9.91
2022-10-17T00:45:17.049Z,9.84
2022-10-17T00:48:22.578Z,9.84
2022-10-17T00:51:34.629Z,9.80
2022-10-17T00:54:43.297Z,9.72
2022-10-17T00:57:45.945Z,9.70
2022-10-17T01:00:48.466Z,9.70
2022-10-17T01:03:50.690Z,9.68
2022-10-17T01:06:52.847Z,9.68
2022-10-17T01:09:55.146Z,9.74
2022-10-17T01:13:06.486Z,9.73
2022-10-17T01:16:23.566Z,9.76
2022-10-17T01:19:59.995Z,9.74
2022-10-17T01:23:29.322Z,9.60
2022-10-17T01:26:41.631Z,9.56
2022-10-17T01:29:46.495Z,9.57
2022-10-17T01:32:57.918Z,9.57
2022-10-17T01:36:04.783Z,9.55
2022-10-17T01:39:13.237Z,9.53
2022-10-17T01:42:26.102Z,9.47
2022-10-17T01:45:40.937Z,9.40
2022-10-17T01:48:45.923Z,9.29
2022-10-17T01:51:59.009Z,9.30
2022-10-17T01:55:09.397Z,9.38
2022-10-17T01:58:23.304Z,9.38
2022-10-17T02:01:26.890Z,9.38
2022-10-17T02:04:29.328Z,9.35
2022-10-17T02:07:31.488Z,9.34
2022-10-17T02:10:41.648Z,9.34
2022-10-17T02:14:06.764Z,9.47
2022-10-17T02:17:39.940Z,9.51
2022-10-17T02:20:56.282Z,9.57
2022-10-17T02:24:06.839Z,9.56
2022-10-17T02:27:20.465Z,9.57
2022-10-17T02:30:34.464Z,9.62
2022-10-17T02:33:44.348Z,9.54
2022-10-17T02:36:51.924Z,9.63
2022-10-17T02:39:56.380Z,9.62
2022-10-17T02:43:00.969Z,9.62
2022-10-17T02:46:03.862Z,9.46
2022-10-17T02:49:24.794Z,9.45
2022-10-17T02:52:52.064Z,9.41
2022-10-17T02:55:58.105Z,9.50
2022-10-17T02:59:01.411Z,9.52
2022-10-17T03:02:05.203Z,9.57
2022-10-17T03:05:08.739Z,9.57
2022-10-17T03:08:11.807Z,9.44
2022-10-17T03:11:13.980Z,9.43
2022-10-17T03:14:16.070Z,9.44
2022-10-17T03:17:18.217Z,9.43
2022-10-17T03:20:20.356Z,9.34
2022-10-17T03:23:22.483Z,9.30
2022-10-17T03:26:24.727Z,9.34
2022-10-17T03:29:26.857Z,9.34
2022-10-17T03:32:29.010Z,9.29
2022-10-17T03:35:31.173Z,9.34
2022-10-17T03:38:34.529Z,9.30
2022-10-17T03:41:36.723Z,9.38
2022-10-17T03:44:38.859Z,9.37
2022-10-17T03:47:40.972Z,9.36
2022-10-17T03:50:43.094Z,9.26
2022-10-17T03:53:45.292Z,9.28
2022-10-17T03:56:47.488Z,9.26
2022-10-17T03:59:51.337Z,9.28
2022-10-17T04:02:53.836Z,9.16
2022-10-17T04:05:59.848Z,9.16
2022-10-17T04:09:02.692Z,9.09
2022-10-17T04:12:05.045Z,9.06
2022-10-17T04:15:07.730Z,9.04
2022-10-17T04:18:09.868Z,9.09
2022-10-17T04:21:12.462Z,9.15
2022-10-17T04:24:14.646Z,9.14
2022-10-17T04:27:16.865Z,9.05
2022-10-17T04:30:19.041Z,8.97
2022-10-17T04:33:21.159Z,8.90
2022-10-17T04:36:23.524Z,8.93
2022-10-17T04:39:25.850Z,8.88
2022-10-17T04:42:29.391Z,8.78
2022-10-17T04:45:31.737Z,8.81
2022-10-17T04:48:34.213Z,8.82
2022-10-17T04:51:36.435Z,8.81
2022-10-17T04:54:38.597Z,8.69
2022-10-17T04:57:40.782Z,8.62
2022-10-17T05:00:43.260Z,8.58
2022-10-17T05:03:46.200Z,8.60
2022-10-17T05:06:48.341Z,8.57
2022-10-17T05:09:50.535Z,8.50
2022-10-17T05:12:53.369Z,8.60
2022-10-17T05:15:59.859Z,8.52
2022-10-17T05:19:02.195Z,8.53
2022-10-17T05:22:04.331Z,8.58
2022-10-17T05:25:07.054Z,8.57
2022-10-17T05:28:09.274Z,8.58
2022-10-17T05:31:11.849Z,8.61
2022-10-17T05:34:14.154Z,8.64
2022-10-17T05:37:16.328Z,8.63
2022-10-17T05:40:18.462Z,8.61
2022-10-17T05:43:20.623Z,8.66
2022-10-17T05:46:22.827Z,8.73
2022-10-17T05:49:39.694Z,8.88
2022-10-17T05:52:47.165Z,8.89
2022-10-17T05:55:56.679Z,9.01
2022-10-17T05:59:01.032Z,9.05
2022-10-17T06:02:03.567Z,9.11
2022-10-17T06:05:06.037Z,9.16
2022-10-17T06:08:08.225Z,9.24
2022-10-17T06:11:11.541Z,9.30
2022-10-17T06:14:13.706Z,9.35
2022-10-17T06:17:16.491Z,9.55
2022-10-17T06:20:18.748Z,9.78
2022-10-17T06:23:20.973Z,10.09
2022-10-17T06:26:23.101Z,10.32
2022-10-17T06:29:25.304Z,10.62
2022-10-17T06:32:27.745Z,11.01
2022-10-17T06:35:30.186Z,11.28
2022-10-17T06:38:32.496Z,11.58
2022-10-17T06:41:34.668Z,11.98
2022-10-17T06:44:36.806Z,12.39
2022-10-17T06:47:39.248Z,12.72
2022-10-17T06:50:41.491Z,12.96
2022-10-17T06:53:43.724Z,13.13
2022-10-17T06:56:45.914Z,13.40
2022-10-17T06:59:48.131Z,13.50
2022-10-17T07:02:50.371Z,13.73
2022-10-17T07:05:53.747Z,13.93
2022-10-17T07:08:56.304Z,14.04
2022-10-17T07:11:59.078Z,14.27
2022-10-17T07:15:01.780Z,14.37
2022-10-17T07:18:04.752Z,14.37
2022-10-17T07:21:08.612Z,14.49
2022-10-17T07:24:10.730Z,14.62
2022-10-17T07:27:14.100Z,14.53
2022-10-17T07:30:16.917Z,14.69
2022-10-17T07:33:19.104Z,14.57
2022-10-17T07:36:21.425Z,14.89
2022-10-17T07:39:23.586Z,15.02
2022-10-17T07:42:25.957Z,15.12
2022-10-17T07:45:28.210Z,15.25
2022-10-17T07:48:30.539Z,15.37
2022-10-17T07:51:32.813Z,15.45
2022-10-17T07:54:35.003Z,15.58
2022-10-17T07:57:37.143Z,15.67
2022-10-17T08:00:39.917Z,15.77
2022-10-17T08:03:44.133Z,15.81
2022-10-17T08:06:46.291Z,15.96
2022-10-17T08:09:48.450Z,16.21
2022-10-17T08:12:50.585Z,16.35
2022-10-17T08:15:52.767Z,16.43
2022-10-17T08:18:55.052Z,16.65
2022-10-17T08:21:58.524Z,16.70
2022-10-17T08:25:00.748Z,16.83
2022-10-17T08:28:02.956Z,16.87
2022-10-17T08:31:08.032Z,16.87
2022-10-17T08:34:10.180Z,16.82
2022-10-17T08:37:15.354Z,16.89
2022-10-17T08:40:22.077Z,16.84
2022-10-17T08:43:35.360Z,17.18
2022-10-17T08:46:40.115Z,17.32
2022-10-17T08:49:46.939Z,17.15
2022-10-17T08:53:03.540Z,17.40
2022-10-17T08:56:19.551Z,17.40
2022-10-17T08:59:28.766Z,17.49
2022-10-17T09:02:52.782Z,17.57
2022-10-17T09:06:11.001Z,17.76
2022-10-17T09:09:13.051Z,17.99
2022-10-17T09:12:22.495Z,18.01
2022-10-17T09:15:47.633Z,17.86
2022-10-17T09:19:03.385Z,17.89
2022-10-17T09:22:25.427Z,18.05
2022-10-17T09:25:27.982Z,18.03
2022-10-17T09:28:39.602Z,18.15
2022-10-17T09:31:45.847Z,18.31
2022-10-17T09:34:48.054Z,18.53
2022-10-17T09:37:53.066Z,18.62
2022-10-17T09:40:59.156Z,18.73
2022-10-17T09:44:24.793Z,18.64
2022-10-17T09:47:35.197Z,18.78
2022-10-17T09:50:37.578Z,18.66
2022-10-17T09:53:42.482Z,18.76
2022-10-17T09:57:05.571Z,18.97
2022-10-17T10:00:08.280Z,19.06
2022-10-17T10:03:19.534Z,19.09
2022-10-17T10:06:21.928Z,19.23
2022-10-17T10:09:25.956Z,19.15
2022-10-17T10:12:37.094Z,19.25
2022-10-17T10:15:41.298Z,19.42
2022-10-17T10:18:45.416Z,19.55
2022-10-17T10:22:01.024Z,19.54
2022-10-17T10:25:13.896Z,19.62
2022-10-17T10:28:17.352Z,19.73
2022-10-17T10:31:35.950Z,19.60
2022-10-17T10:34:45.415Z,19.64
2022-10-17T10:37:51.075Z,19.72
2022-10-17T10:41:02.337Z,19.69
2022-10-17T10:44:06.480Z,19.61
2022-10-17T10:47:09.823Z,19.66
2022-10-17T10:50:27.166Z,19.70
2022-10-17T10:53:41.380Z,19.88
2022-10-17T10:56:49.845Z,20.04
2022-10-17T11:00:10.195Z,20.00
2022-10-17T11:03:24.412Z,20.06
2022-10-17T11:06:29.327Z,20.31
2022-10-17T11:09:53.585Z,20.27
2022-10-17T11:13:14.847Z,20.29
2022-10-17T11:16:22.110Z,20.17
2022-10-17T11:20:05.950Z,20.11
2022-10-17T11:23:20.792Z,20.34
2022-10-17T11:26:31.728Z,20.36
2022-10-17T11:29:35.813Z,20.17
2022-10-17T11:32:44.757Z,20.22
2022-10-17T11:35:49.808Z,19.97
2022-10-17T11:38:58.749Z,20.01
2022-10-17T11:42:07.081Z,19.98
2022-10-17T11:45:15.028Z,20.01
2022-10-17T11:48:21.795Z,20.13
2022-10-17T11:54:51.000Z,20.03
2022-10-17T11:57:53.117Z,20.11
2022-10-17T12:01:23.695Z,20.11
2022-10-17T12:04:54.744Z,20.18
2022-10-17T12:08:09.716Z,20.19
2022-10-17T12:11:54.170Z,20.25
2022-10-17T12:15:19.280Z,20.23
2022-10-17T12:18:25.383Z,20.29
2022-10-17T12:21:32.141Z,20.24
2022-10-17T12:24:41.476Z,20.18
2022-10-17T12:27:46.205Z,20.22
2022-10-17T12:30:53.629Z,20.26
2022-10-17T12:33:58.330Z,20.36
2022-10-17T12:37:00.473Z,20.42
2022-10-17T12:40:02.614Z,20.29
2022-10-17T12:43:13.699Z,20.23
2022-10-17T12:46:34.006Z,20.29
2022-10-17T12:49:49.686Z,20.27
2022-10-17T12:53:02.783Z,20.29
2022-10-17T12:56:05.684Z,20.30
2022-10-17T12:59:15.478Z,20.29
2022-10-17T13:02:21.253Z,20.18
2022-10-17T13:05:38.361Z,20.05
2022-10-17T13:08:44.428Z,19.96
2022-10-17T13:11:49.077Z,20.00
2022-10-17T13:14:53.297Z,20.05
2022-10-17T13:17:59.970Z,20.01
2022-10-17T13:21:05.970Z,20.11
2022-10-17T13:24:35.105Z,20.07
2022-10-17T13:27:37.799Z,20.08
2022-10-17T13:30:40.111Z,20.03
2022-10-17T13:33:42.417Z,19.97
2022-10-17T13:36:48.863Z,19.86
2022-10-17T13:40:07.083Z,19.85
2022-10-17T13:43:17.390Z,19.83
2022-10-17T13:46:44.126Z,19.87
2022-10-17T13:49:46.300Z,20.01
2022-10-17T13:52:48.517Z,19.83
2022-10-17T13:56:15.753Z,19.77
2022-10-17T13:59:26.049Z,19.90
2022-10-17T14:02:30.336Z,19.92
2022-10-17T14:05:32.989Z,19.84
2022-10-17T14:08:36.358Z,19.80
2022-10-17T14:11:43.334Z,19.90
2022-10-17T14:15:09.783Z,19.82
2022-10-17T14:18:25.451Z,19.82
2022-10-17T14:21:44.152Z,19.77
2022-10-17T14:24:47.404Z,19.79
2022-10-17T14:28:03.588Z,19.72
2022-10-17T14:31:29.609Z,19.71
2022-10-17T14:34:35.095Z,19.71
2022-10-17T14:37:40.191Z,19.65
2022-10-17T14:40:50.149Z,19.51
2022-10-17T14:44:13.437Z,19.49
2022-10-17T14:47:42.203Z,19.45
2022-10-17T14:54:22.249Z,19.18
2022-10-17T14:57:24.537Z,19.14
2022-10-17T15:00:26.982Z,19.05
2022-10-17T15:03:29.200Z,19.12
2022-10-17T15:06:34.431Z,19.06
2022-10-17T15:09:36.581Z,18.98
2022-10-17T15:12:43.640Z,18.96
2022-10-17T15:15:52.169Z,18.85
2022-10-17T15:18:54.755Z,18.79
2022-10-17T15:21:56.945Z,18.73
2022-10-17T15:24:59.148Z,18.59
2022-10-17T15:28:01.314Z,18.47
2022-10-17T15:31:03.458Z,18.37
2022-10-17T15:34:05.612Z,18.21
2022-10-17T15:37:16.179Z,17.97
2022-10-17T15:40:24.194Z,17.71
2022-10-17T15:43:26.434Z,17.47
2022-10-17T15:46:30.819Z,17.26
2022-10-17T15:49:34.660Z,16.97
2022-10-17T15:52:36.906Z,16.74
2022-10-17T15:55:39.115Z,16.57
2022-10-17T15:58:41.458Z,16.38
2022-10-17T16:01:44.075Z,16.18
2022-10-17T16:04:46.713Z,16.06
2022-10-17T16:07:49.398Z,15.79
2022-10-17T16:10:52.312Z,15.60
2022-10-17T16:13:56.509Z,15.56
2022-10-17T16:17:01.748Z,15.38
2022-10-17T16:20:04.056Z,15.30
2022-10-17T16:23:07.727Z,15.22
2022-10-17T16:26:10.203Z,15.05
2022-10-17T16:29:12.471Z,14.90
2022-10-17T16:32:14.695Z,14.60
2022-10-17T16:35:20.080Z,14.42
2022-10-17T16:38:22.229Z,14.27
2022-10-17T16:41:30.772Z,14.20
2022-10-17T16:44:32.994Z,14.11
2022-10-17T16:47:35.157Z,14.05
2022-10-17T16:50:39.548Z,13.97
2022-10-17T16:53:45.337Z,13.91
2022-10-17T16:56:47.682Z,13.82
2022-10-17T16:59:50.380Z,13.70
2022-10-17T17:02:52.602Z,13.72
2022-10-17T17:05:54.792Z,13.69
2022-10-17T17:08:57.513Z,13.59
2022-10-17T17:11:59.685Z,13.49
2022-10-17T17:15:02.341Z,13.37
2022-10-17T17:18:05.872Z,13.29
2022-10-17T17:21:09.811Z,13.25
2022-10-17T17:24:11.964Z,13.21
2022-10-17T17:27:14.289Z,13.18
2022-10-17T17:30:16.853Z,13.10
2022-10-17T17:33:19.039Z,13.04
2022-10-17T17:36:32.497Z,13.02
2022-10-17T17:39:34.798Z,12.98
2022-10-17T17:42:36.955Z,12.91
2022-10-17T17:45:39.102Z,12.81
2022-10-17T17:48:41.918Z,12.69
2022-10-17T17:51:46.548Z,12.68
2022-10-17T17:54:48.894Z,12.71
2022-10-17T17:57:51.047Z,12.69
2022-10-17T18:00:53.312Z,12.68
2022-10-17T18:03:58.935Z,12.67
2022-10-17T18:07:01.145Z,12.64
2022-10-17T18:10:04.895Z,12.69
2022-10-17T18:13:07.110Z,12.67
2022-10-17T18:16:13.341Z,12.64
2022-10-17T18:19:15.559Z,12.61
2022-10-17T18:22:18.105Z,12.55
2022-10-17T18:25:21.596Z,12.50
2022-10-17T18:28:24.737Z,12.45
2022-10-17T18:31:35.310Z,12.45
2022-10-17T18:34:37.676Z,12.42
2022-10-17T18:40:49.962Z,12.35
2022-10-17T18:43:54.521Z,12.29
2022-10-17T18:46:59.864Z,12.30
2022-10-17T18:50:05.613Z,12.35
2022-10-17T18:53:07.805Z,12.34
2022-10-17T18:56:10.786Z,12.33
2022-10-17T18:59:13.013Z,12.28
2022-10-17T19:02:15.229Z,12.19
2022-10-17T19:05:17.500Z,12.15
2022-10-17T19:08:19.644Z,12.19
2022-10-17T19:11:24.663Z,12.15
2022-10-17T19:14:28.631Z,12.10
2022-10-17T19:17:31.012Z,12.11
2022-10-17T19:20:33.517Z,12.08
2022-10-17T19:23:36.204Z,12.10
2022-10-17T19:26:39.714Z,12.10
2022-10-17T19:29:43.979Z,12.07
2022-10-17T19:32:47.617Z,12.09
2022-10-17T19:36:07.890Z,12.12
2022-10-17T19:39:15.878Z,12.07
2022-10-17T19:42:18.023Z,12.08
2022-10-17T19:45:20.164Z,12.00
2022-10-17T19:48:22.754Z,11.97
2022-10-17T19:51:25.726Z,12.04
2022-10-17T19:54:27.932Z,12.05
2022-10-17T19:57:30.155Z,12.02
2022-10-17T20:00:32.381Z,12.02
2022-10-17T20:03:34.535Z,11.97
2022-10-17T20:06:37.134Z,11.87
2022-10-17T20:09:39.307Z,11.88
2022-10-17T20:12:41.486Z,11.83
2022-10-17T20:15:53.950Z,11.85
2022-10-17T20:18:58.166Z,11.81
2022-10-17T20:22:00.320Z,11.76
2022-10-17T20:25:02.453Z,11.74
2022-10-17T20:28:05.387Z,11.75
2022-10-17T20:31:09.210Z,11.70
2022-10-17T20:34:15.523Z,11.66
2022-10-17T20:37:17.659Z,11.66
2022-10-17T20:40:35.845Z,11.69
2022-10-17T20:43:38.628Z,11.62
2022-10-17T20:46:45.365Z,11.57
2022-10-17T20:49:59.769Z,11.56
2022-10-17T20:53:31.422Z,11.42
2022-10-17T20:56:27.302Z,11.38
2022-10-17T20:59:29.887Z,11.37
2022-10-17T21:02:32.551Z,11.29
2022-10-17T21:05:39.703Z,11.31
2022-10-17T21:08:42.068Z,11.32
2022-10-17T21:11:44.419Z,11.38
2022-10-17T21:14:46.840Z,11.40
2022-10-17T21:17:48.980Z,11.37
2022-10-17T21:20:51.113Z,11.30
2022-10-17T21:23:55.108Z,11.33
2022-10-17T21:26:57.606Z,11.32
2022-10-17T21:29:59.789Z,11.30
2022-10-17T21:33:01.929Z,11.26
2022-10-17T21:36:04.700Z,11.24
2022-10-17T21:42:14.475Z,11.19
2022-10-17T21:45:25.427Z,11.15
2022-10-17T21:48:28.256Z,11.14
2022-10-17T21:51:30.410Z,11.18
2022-10-17T21:54:32.987Z,11.10
2022-10-17T21:57:35.138Z,11.06
2022-10-17T22:00:37.278Z,11.09
2022-10-17T22:03:45.769Z,11.06
2022-10-17T22:06:53.271Z,11.02
2022-10-17T22:09:55.404Z,10.98
2022-10-17T22:12:57.601Z,10.98
2022-10-17T22:16:04.893Z,10.96
2022-10-17T22:19:07.965Z,10.90
2022-10-17T22:22:10.105Z,10.86
2022-10-17T22:25:12.237Z,10.86
2022-10-17T22:28:14.382Z,10.85
2022-10-17T22:31:16.725Z,10.82
2022-10-17T22:34:19.148Z,10.77
2022-10-17T22:37:21.289Z,10.77
2022-10-17T22:40:23.463Z,10.74
2022-10-17T22:43:25.725Z,10.73
2022-10-17T22:46:28.258Z,10.68
2022-10-17T22:49:30.412Z,10.61
2022-10-17T22:52:32.852Z,10.60
2022-10-17T22:55:35.152Z,10.60
2022-10-17T22:58:37.985Z,10.58
2022-10-17T23:01:40.174Z,10.53
2022-10-17T23:04:42.486Z,10.46
2022-10-17T23:07:44.673Z,10.41
2022-10-17T23:10:47.719Z,10.32
2022-10-17T23:13:49.893Z,10.30
2022-10-17T23:16:52.058Z,10.15
2022-10-17T23:19:56.965Z,10.02
2022-10-17T23:22:59.989Z,10.04
2022-10-17T23:26:06.524Z,10.04
2022-10-17T23:29:08.783Z,10.02
2022-10-17T23:32:10.979Z,10.00
2022-10-17T23:35:13.151Z,9.96
2022-10-17T23:38:15.279Z,9.90
2022-10-17T23:41:17.508Z,9.96
2022-10-17T23:44:19.775Z,9.94
2022-10-17T23:47:22.078Z,9.96
2022-10-17T23:50:24.296Z,9.96
2022-10-17T23:53:26.473Z,9.95
2022-10-17T23:56:28.647Z,9.87
2022-10-17T23:59:30.834Z,9.88
